createdAt,value
2023-03-12T00:00:16.703Z,22.19
2023-03-12T00:01:15.544Z,22.19
2023-03-12T00:02:15.963Z,22.19
2023-03-12T00:03:17.336Z,22.51
2023-03-12T00:04:18.096Z,22.51
2023-03-12T00:05:18.155Z,22.51
2023-03-12T00:06:20.144Z,22.51
2023-03-12T00:07:17.195Z,22.19
2023-03-12T00:08:19.125Z,22.19
2023-03-12T00:09:17.617Z,22.19
2023-03-12T00:10:18.147Z,22.19
2023-03-12T00:11:18.088Z,22.19
2023-03-12T00:12:18.457Z,21.87
2023-03-12T00:13:18.932Z,21.87
2023-03-12T00:14:19.371Z,21.87
2023-03-12T00:15:19.760Z,21.54
2023-03-12T00:16:20.373Z,21.87
2023-03-12T00:17:21.862Z,21.87
2023-03-12T00:18:20.926Z,21.87
2023-03-12T00:19:20.977Z,21.87
2023-03-12T00:20:20.923Z,21.54
2023-03-12T00:21:21.242Z,20.90
2023-03-12T00:22:21.778Z,21.22
2023-03-12T00:23:21.873Z,21.22
2023-03-12T00:24:23.774Z,21.54
2023-03-12T00:25:23.084Z,21.54
2023-03-12T00:26:23.423Z,21.22
2023-03-12T00:27:22.851Z,21.54
2023-03-12T00:28:23.341Z,21.87
2023-03-12T00:29:23.734Z,21.87
2023-03-12T00:30:24.299Z,21.87
2023-03-12T00:31:25.778Z,21.54
2023-03-12T00:32:26.248Z,21.54
2023-03-12T00:33:26.170Z,21.54
2023-03-12T00:34:26.743Z,21.54
2023-03-12T00:35:27.654Z,21.54
2023-03-12T00:36:28.635Z,21.54
2023-03-12T00:37:28.058Z,21.87
2023-03-12T00:38:26.979Z,21.54
2023-03-12T00:39:27.178Z,21.54
2023-03-12T00:40:27.098Z,21.54
2023-03-12T00:41:27.714Z,21.54
2023-03-12T00:42:27.623Z,21.54
2023-03-12T00:43:28.099Z,21.54
2023-03-12T00:44:28.096Z,21.54
2023-03-12T00:45:28.489Z,21.54
2023-03-12T00:46:28.862Z,21.87
2023-03-12T00:47:30.276Z,21.87
2023-03-12T00:48:29.641Z,21.54
2023-03-12T00:49:30.110Z,20.90
2023-03-12T00:50:30.505Z,20.90
2023-03-12T00:51:30.849Z,20.90
2023-03-12T00:52:31.576Z,21.22
2023-03-12T00:53:31.525Z,21.22
2023-03-12T00:54:31.997Z,21.22
2023-03-12T00:55:35.530Z,21.54
2023-03-12T00:56:32.477Z,21.54
2023-03-12T00:57:33.772Z,21.54
2023-03-12T00:58:33.129Z,21.54
2023-03-12T00:59:33.610Z,21.87
2023-03-12T01:00:34.004Z,21.87
2023-03-12T01:01:35.842Z,22.19
2023-03-12T01:02:35.710Z,22.19
2023-03-12T01:03:35.098Z,21.87
2023-03-12T01:04:36.391Z,22.19
2023-03-12T01:05:37.737Z,22.19
2023-03-12T01:06:39.226Z,22.51
2023-03-12T01:07:38.110Z,22.51
2023-03-12T01:08:37.999Z,22.51
2023-03-12T01:09:37.429Z,22.51
2023-03-12T01:10:38.625Z,22.19
2023-03-12T01:11:38.037Z,22.19
2023-03-12T01:12:38.469Z,22.51
2023-03-12T01:13:38.812Z,22.51
2023-03-12T01:14:41.124Z,22.51
2023-03-12T01:15:39.636Z,22.51
2023-03-12T01:16:40.017Z,22.83
2023-03-12T01:17:40.412Z,22.83
2023-03-12T01:18:40.771Z,22.83
2023-03-12T01:19:41.124Z,23.15
2023-03-12T01:21:26.022Z,23.15
2023-03-12T01:22:26.723Z,22.83
2023-03-12T01:23:26.099Z,23.15
2023-03-12T01:24:26.438Z,22.83
2023-03-12T01:25:26.768Z,22.83
2023-03-12T01:26:29.152Z,22.83
2023-03-12T01:27:27.617Z,23.15
2023-03-12T01:28:28.666Z,22.83
2023-03-12T01:29:28.031Z,22.83
2023-03-12T01:30:29.333Z,22.83
2023-03-12T01:31:28.695Z,22.83
2023-03-12T01:32:30.926Z,22.83
2023-03-12T01:33:33.725Z,22.51
2023-03-12T01:34:29.606Z,22.83
2023-03-12T01:35:30.036Z,22.83
2023-03-12T01:36:33.526Z,22.51
2023-03-12T01:37:31.385Z,22.51
2023-03-12T01:38:30.712Z,22.51
2023-03-12T01:39:32.381Z,22.51
2023-03-12T01:40:31.228Z,22.83
2023-03-12T01:41:31.549Z,22.51
2023-03-12T01:42:32.027Z,22.51
2023-03-12T01:43:32.382Z,22.51
2023-03-12T01:44:34.345Z,22.51
2023-03-12T01:45:33.820Z,22.51
2023-03-12T01:46:34.470Z,22.51
2023-03-12T01:47:33.250Z,22.83
2023-03-12T01:48:33.623Z,22.51
2023-03-12T01:49:34.004Z,22.83
2023-03-12T01:50:35.400Z,22.51
2023-03-12T01:51:34.863Z,22.83
2023-03-12T01:52:35.331Z,22.83
2023-03-12T01:53:35.739Z,22.83
2023-03-12T01:54:36.151Z,22.83
2023-03-12T01:55:36.487Z,22.83
2023-03-12T01:56:37.859Z,23.15
2023-03-12T01:57:37.237Z,23.15
2023-03-12T01:58:37.605Z,23.48
2023-03-12T01:59:38.050Z,23.15
2023-03-12T02:00:38.339Z,23.80
2023-03-12T02:01:38.752Z,23.48
2023-03-12T02:02:40.167Z,23.48
2023-03-12T02:03:39.610Z,23.15
2023-03-12T02:04:41.598Z,23.48
2023-03-12T02:05:42.539Z,23.15
2023-03-12T02:06:43.534Z,23.15
2023-03-12T02:07:41.427Z,23.15
2023-03-12T02:08:41.779Z,23.15
2023-03-12T02:09:42.218Z,23.15
2023-03-12T02:10:41.199Z,23.15
2023-03-12T02:11:41.587Z,23.48
2023-03-12T02:12:42.322Z,23.48
2023-03-12T02:13:42.167Z,23.15
2023-03-12T02:14:42.754Z,22.51
2023-03-12T02:15:44.107Z,22.51
2023-03-12T02:16:43.125Z,22.51
2023-03-12T02:17:43.129Z,22.51
2023-03-12T02:18:43.537Z,22.51
2023-03-12T02:19:44.948Z,22.51
2023-03-12T02:20:44.246Z,22.51
2023-03-12T02:21:44.568Z,22.51
2023-03-12T02:22:45.148Z,22.19
2023-03-12T02:23:45.097Z,22.51
2023-03-12T02:24:46.432Z,22.19
2023-03-12T02:25:47.557Z,22.51
2023-03-12T02:26:45.945Z,22.19
2023-03-12T02:27:46.288Z,22.51
2023-03-12T02:28:48.398Z,22.51
2023-03-12T02:29:46.868Z,22.51
2023-03-12T02:30:47.232Z,22.51
2023-03-12T02:31:48.673Z,22.51
2023-03-12T02:32:50.018Z,22.83
2023-03-12T02:33:48.438Z,22.51
2023-03-12T02:34:48.768Z,22.51
2023-03-12T02:35:50.125Z,22.83
2023-03-12T02:36:49.512Z,22.51
2023-03-12T02:37:50.541Z,22.51
2023-03-12T02:38:49.955Z,22.51
2023-03-12T02:39:50.201Z,22.51
2023-03-12T02:40:50.572Z,22.51
2023-03-12T02:41:50.893Z,22.83
2023-03-12T02:42:51.264Z,21.54
2023-03-12T02:43:51.620Z,21.87
2023-03-12T02:44:51.984Z,21.87
2023-03-12T02:45:52.387Z,21.87
2023-03-12T02:46:52.794Z,22.19
2023-03-12T02:47:53.256Z,22.19
2023-03-12T02:48:54.299Z,21.87
2023-03-12T02:49:53.197Z,21.54
2023-03-12T02:50:53.504Z,21.87
2023-03-12T02:51:53.792Z,21.87
2023-03-12T02:52:54.172Z,21.87
2023-03-12T02:53:54.563Z,21.54
2023-03-12T02:54:56.883Z,21.54
2023-03-12T02:55:55.225Z,21.87
2023-03-12T02:56:55.682Z,21.87
2023-03-12T02:57:56.076Z,21.87
2023-03-12T02:58:57.493Z,21.87
2023-03-12T02:59:57.767Z,21.87
2023-03-12T03:00:57.503Z,21.87
2023-03-12T03:01:57.466Z,21.87
2023-03-12T03:02:59.769Z,21.87
2023-03-12T03:03:59.233Z,22.19
2023-03-12T03:04:58.077Z,21.87
2023-03-12T03:05:58.389Z,22.19
2023-03-12T03:06:58.808Z,21.87
2023-03-12T03:07:59.106Z,21.87
2023-03-12T03:08:59.525Z,21.87
2023-03-12T03:09:59.889Z,22.19
2023-03-12T03:11:00.233Z,21.87
2023-03-12T03:12:00.616Z,21.87
2023-03-12T03:13:01.001Z,22.19
2023-03-12T03:14:01.475Z,22.19
2023-03-12T03:15:02.690Z,22.19
2023-03-12T03:16:02.196Z,21.87
2023-03-12T03:17:04.237Z,21.87
2023-03-12T03:18:03.731Z,21.87
2023-03-12T03:19:03.667Z,21.87
2023-03-12T03:20:03.106Z,21.87
2023-03-12T03:21:04.338Z,21.87
2023-03-12T03:22:04.476Z,22.19
2023-03-12T03:23:04.686Z,21.87
2023-03-12T03:24:04.850Z,21.54
2023-03-12T03:25:05.039Z,21.87
2023-03-12T03:26:05.378Z,21.54
2023-03-12T03:27:06.680Z,21.87
2023-03-12T03:28:06.135Z,21.54
2023-03-12T03:29:06.371Z,21.87
2023-03-12T03:30:07.237Z,21.87
2023-03-12T03:31:06.698Z,21.54
2023-03-12T03:32:07.334Z,21.87
2023-03-12T03:33:07.041Z,21.87
2023-03-12T03:34:07.599Z,21.87
2023-03-12T03:35:07.387Z,21.87
2023-03-12T03:36:07.739Z,21.87
2023-03-12T03:37:08.081Z,21.87
2023-03-12T03:38:08.390Z,21.87
2023-03-12T03:39:08.950Z,21.87
2023-03-12T03:40:08.829Z,21.54
2023-03-12T03:41:09.505Z,21.87
2023-03-12T03:42:10.122Z,21.87
2023-03-12T03:43:09.994Z,21.87
2023-03-12T03:44:09.575Z,22.19
2023-03-12T03:45:09.819Z,21.87
2023-03-12T03:46:10.693Z,21.87
2023-03-12T03:47:10.256Z,21.87
2023-03-12T03:48:10.409Z,22.19
2023-03-12T03:49:10.707Z,22.19
2023-03-12T03:50:11.777Z,21.87
2023-03-12T03:51:11.486Z,21.87
2023-03-12T03:52:10.268Z,21.87
2023-03-12T03:53:11.480Z,22.19
2023-03-12T03:54:12.331Z,21.87
2023-03-12T03:55:12.207Z,21.87
2023-03-12T03:56:12.543Z,22.19
2023-03-12T03:57:11.782Z,21.87
2023-03-12T03:58:12.276Z,21.87
2023-03-12T03:59:14.530Z,21.54
2023-03-12T04:00:12.873Z,21.22
2023-03-12T04:01:14.187Z,21.54
2023-03-12T04:02:14.876Z,21.54
2023-03-12T04:03:14.847Z,21.54
2023-03-12T04:04:14.311Z,21.54
2023-03-12T04:05:16.464Z,21.54
2023-03-12T04:06:16.041Z,21.54
2023-03-12T04:07:15.038Z,21.54
2023-03-12T04:08:17.447Z,21.54
2023-03-12T04:09:15.892Z,21.54
2023-03-12T04:10:16.218Z,21.54
2023-03-12T04:11:16.788Z,21.54
2023-03-12T04:12:17.506Z,20.58
2023-03-12T04:13:17.897Z,21.22
2023-03-12T04:14:17.347Z,20.90
2023-03-12T04:15:18.594Z,21.22
2023-03-12T04:16:18.077Z,21.22
2023-03-12T04:17:18.364Z,21.22
2023-03-12T04:18:18.395Z,21.54
2023-03-12T04:19:18.454Z,21.22
2023-03-12T04:20:18.344Z,21.22
2023-03-12T04:21:19.679Z,20.90
2023-03-12T04:22:19.330Z,20.90
2023-03-12T04:23:20.144Z,21.22
2023-03-12T04:24:19.534Z,20.90
2023-03-12T04:25:20.002Z,20.90
2023-03-12T04:26:20.128Z,20.90
2023-03-12T04:27:20.541Z,21.22
2023-03-12T04:28:21.650Z,21.22
2023-03-12T04:29:20.930Z,21.22
2023-03-12T04:30:20.848Z,21.22
2023-03-12T04:31:21.562Z,21.22
2023-03-12T04:32:21.752Z,21.22
2023-03-12T04:33:23.057Z,20.90
2023-03-12T04:34:22.226Z,20.90
2023-03-12T04:35:22.550Z,20.90
2023-03-12T04:36:23.740Z,20.58
2023-03-12T04:37:22.857Z,21.22
2023-03-12T04:38:23.268Z,21.54
2023-03-12T04:39:23.255Z,21.22
2023-03-12T04:40:24.331Z,21.54
2023-03-12T04:41:24.738Z,21.54
2023-03-12T04:42:23.642Z,21.22
2023-03-12T04:43:24.128Z,21.22
2023-03-12T04:44:24.283Z,21.22
2023-03-12T04:45:24.270Z,21.22
2023-03-12T04:46:25.308Z,21.22
2023-03-12T04:47:25.831Z,20.90
2023-03-12T04:48:24.856Z,21.22
2023-03-12T04:49:25.147Z,21.54
2023-03-12T04:50:26.553Z,21.22
2023-03-12T04:51:27.710Z,21.22
2023-03-12T04:52:26.870Z,21.54
2023-03-12T04:53:27.923Z,21.22
2023-03-12T04:54:25.988Z,21.54
2023-03-12T04:55:27.131Z,21.54
2023-03-12T04:56:26.839Z,21.22
2023-03-12T04:57:27.430Z,21.54
2023-03-12T04:58:26.568Z,21.54
2023-03-12T04:59:27.228Z,21.54
2023-03-12T05:00:27.779Z,21.22
2023-03-12T05:01:27.561Z,21.54
2023-03-12T05:02:28.146Z,21.87
2023-03-12T05:03:27.510Z,21.54
2023-03-12T05:04:30.817Z,21.87
2023-03-12T05:05:27.720Z,21.87
2023-03-12T05:06:35.183Z,21.87
2023-03-12T05:07:28.266Z,21.87
2023-03-12T05:08:30.135Z,21.87
2023-03-12T05:09:29.760Z,21.54
2023-03-12T05:10:28.973Z,21.54
2023-03-12T05:11:29.082Z,21.54
2023-03-12T05:12:29.297Z,21.54
2023-03-12T05:13:29.528Z,21.54
2023-03-12T05:14:29.687Z,21.54
2023-03-12T05:15:29.785Z,21.22
2023-03-12T05:16:30.220Z,21.54
2023-03-12T05:17:30.283Z,21.54
2023-03-12T05:18:30.284Z,21.54
2023-03-12T05:19:30.376Z,21.87
2023-03-12T05:20:31.386Z,21.87
2023-03-12T05:21:31.004Z,21.54
2023-03-12T05:22:31.715Z,21.54
2023-03-12T05:23:32.267Z,21.54
2023-03-12T05:24:31.557Z,21.54
2023-03-12T05:25:32.348Z,21.54
2023-03-12T05:26:32.807Z,21.54
2023-03-12T05:27:33.197Z,21.54
2023-03-12T05:28:32.856Z,21.54
2023-03-12T05:29:34.475Z,21.54
2023-03-12T05:30:33.054Z,21.87
2023-03-12T05:31:33.200Z,21.54
2023-03-12T05:32:33.541Z,21.87
2023-03-12T05:33:33.558Z,21.54
2023-03-12T05:34:35.222Z,21.54
2023-03-12T05:35:35.336Z,21.87
2023-03-12T05:36:49.172Z,21.87
2023-03-12T05:37:34.507Z,21.87
2023-03-12T05:38:34.286Z,21.87
2023-03-12T05:39:34.348Z,21.87
2023-03-12T05:40:34.863Z,21.87
2023-03-12T05:41:34.474Z,21.54
2023-03-12T05:42:35.218Z,21.87
2023-03-12T05:43:35.429Z,21.87
2023-03-12T05:44:35.910Z,21.87
2023-03-12T05:45:35.739Z,21.87
2023-03-12T05:46:35.961Z,21.87
2023-03-12T05:47:36.570Z,21.54
2023-03-12T05:48:37.326Z,21.54
2023-03-12T05:49:37.274Z,21.54
2023-03-12T05:50:36.937Z,21.54
2023-03-12T05:51:37.022Z,21.54
2023-03-12T05:52:37.204Z,21.87
2023-03-12T05:53:38.770Z,21.87
2023-03-12T05:54:41.454Z,21.87
2023-03-12T05:55:37.837Z,21.87
2023-03-12T05:56:38.178Z,21.54
2023-03-12T05:57:39.521Z,21.87
2023-03-12T05:58:38.831Z,21.87
2023-03-12T05:59:40.147Z,21.87
2023-03-12T06:00:39.484Z,21.87
2023-03-12T06:01:41.020Z,21.87
2023-03-12T06:02:41.501Z,21.87
2023-03-12T06:03:39.921Z,21.54
2023-03-12T06:04:41.219Z,21.54
2023-03-12T06:05:40.543Z,21.87
2023-03-12T06:06:43.527Z,21.87
2023-03-12T06:07:41.403Z,21.54
2023-03-12T06:08:41.823Z,22.19
2023-03-12T06:09:41.746Z,21.87
2023-03-12T06:10:42.086Z,21.87
2023-03-12T06:11:43.571Z,21.87
2023-03-12T06:12:44.805Z,21.87
2023-03-12T06:13:45.187Z,21.87
2023-03-12T06:14:43.593Z,21.87
2023-03-12T06:15:45.372Z,22.19
2023-03-12T06:16:45.162Z,22.19
2023-03-12T06:17:44.537Z,21.87
2023-03-12T06:18:45.825Z,22.19
2023-03-12T06:19:47.200Z,21.87
2023-03-12T06:20:46.451Z,22.19
2023-03-12T06:21:46.942Z,22.19
2023-03-12T06:22:47.938Z,22.19
2023-03-12T06:23:46.359Z,22.19
2023-03-12T06:24:49.254Z,22.19
2023-03-12T06:25:48.082Z,22.51
2023-03-12T06:26:48.237Z,22.51
2023-03-12T06:27:47.533Z,22.51
2023-03-12T06:28:48.838Z,22.19
2023-03-12T06:29:49.231Z,22.51
2023-03-12T06:30:48.620Z,22.19
2023-03-12T06:31:49.057Z,22.51
2023-03-12T06:32:49.621Z,22.51
2023-03-12T06:33:50.937Z,22.19
2023-03-12T06:34:50.700Z,22.51
2023-03-12T06:35:51.280Z,22.51
2023-03-12T06:36:50.347Z,22.51
2023-03-12T06:37:52.425Z,22.51
2023-03-12T06:38:51.482Z,22.51
2023-03-12T06:39:50.551Z,22.19
2023-03-12T06:40:50.966Z,22.19
2023-03-12T06:41:50.467Z,22.51
2023-03-12T06:42:51.777Z,22.83
2023-03-12T06:43:52.982Z,22.51
2023-03-12T06:44:52.218Z,22.51
2023-03-12T06:45:55.659Z,22.19
2023-03-12T06:47:02.987Z,21.87
2023-03-12T06:47:53.974Z,21.87
2023-03-12T06:48:54.224Z,22.19
2023-03-12T06:49:54.264Z,22.19
2023-03-12T06:50:53.288Z,22.51
2023-03-12T06:51:54.603Z,22.51
2023-03-12T06:52:54.056Z,22.51
2023-03-12T06:53:54.962Z,22.51
2023-03-12T06:54:54.542Z,22.51
2023-03-12T06:55:55.174Z,22.51
2023-03-12T06:56:56.430Z,22.51
2023-03-12T06:57:55.666Z,22.51
2023-03-12T06:58:56.489Z,22.51
2023-03-12T06:59:55.901Z,22.51
2023-03-12T07:00:57.503Z,22.51
2023-03-12T07:01:56.529Z,22.51
2023-03-12T07:02:56.696Z,22.51
2023-03-12T07:03:56.856Z,22.51
2023-03-12T07:04:56.825Z,22.83
2023-03-12T07:06:01.895Z,22.83
2023-03-12T07:06:56.986Z,22.51
2023-03-12T07:07:57.086Z,22.83
2023-03-12T07:09:06.296Z,22.51
2023-03-12T07:09:59.142Z,22.51
2023-03-12T07:11:00.021Z,22.51
2023-03-12T07:11:59.011Z,22.51
2023-03-12T07:12:58.625Z,22.51
2023-03-12T07:13:59.243Z,22.83
2023-03-12T07:14:59.580Z,22.51
2023-03-12T07:16:01.780Z,22.51
2023-03-12T07:17:00.374Z,22.51
2023-03-12T07:18:08.177Z,22.83
2023-03-12T07:19:03.575Z,22.51
2023-03-12T07:20:02.622Z,22.51
2023-03-12T07:21:01.458Z,22.51
2023-03-12T07:22:00.367Z,22.19
2023-03-12T07:23:03.288Z,22.51
2023-03-12T07:24:00.732Z,22.83
2023-03-12T07:25:05.222Z,23.15
2023-03-12T07:26:02.533Z,22.83
2023-03-12T07:27:05.670Z,22.83
2023-03-12T07:28:03.972Z,23.15
2023-03-12T07:29:02.665Z,23.15
2023-03-12T07:30:02.682Z,23.15
2023-03-12T07:31:02.497Z,23.15
2023-03-12T07:32:03.650Z,23.15
2023-03-12T07:33:02.787Z,23.48
2023-03-12T07:34:07.402Z,23.48
2023-03-12T07:35:05.584Z,23.48
2023-03-12T07:36:07.343Z,23.48
2023-03-12T07:37:04.061Z,23.48
2023-03-12T07:38:04.231Z,23.48
2023-03-12T07:39:04.685Z,23.48
2023-03-12T07:40:05.427Z,23.48
2023-03-12T07:41:06.326Z,23.48
2023-03-12T07:42:04.931Z,23.80
2023-03-12T07:43:05.530Z,23.48
2023-03-12T07:44:05.486Z,23.80
2023-03-12T07:45:04.900Z,23.80
2023-03-12T07:46:05.361Z,23.80
2023-03-12T07:47:22.362Z,23.80
2023-03-12T07:48:06.878Z,23.80
2023-03-12T07:49:06.622Z,23.80
2023-03-12T07:50:07.750Z,23.80
2023-03-12T07:51:06.599Z,23.48
2023-03-12T07:52:07.952Z,23.80
2023-03-12T07:53:07.484Z,23.80
2023-03-12T07:54:11.512Z,23.48
2023-03-12T07:55:07.785Z,23.80
2023-03-12T07:56:09.836Z,23.48
2023-03-12T07:57:07.894Z,23.48
2023-03-12T07:58:08.996Z,23.48
2023-03-12T07:59:08.086Z,23.48
2023-03-12T08:00:08.049Z,23.80
2023-03-12T08:01:09.290Z,23.48
2023-03-12T08:02:08.871Z,23.80
2023-03-12T08:03:09.127Z,24.12
2023-03-12T08:04:10.412Z,23.80
2023-03-12T08:05:12.649Z,23.80
2023-03-12T08:06:12.061Z,23.48
2023-03-12T08:07:10.824Z,23.80
2023-03-12T08:08:09.974Z,23.80
2023-03-12T08:09:10.044Z,23.80
2023-03-12T08:10:11.255Z,23.80
2023-03-12T08:11:10.277Z,23.80
2023-03-12T08:12:11.353Z,23.80
2023-03-12T08:13:11.077Z,23.80
2023-03-12T08:14:10.657Z,23.15
2023-03-12T08:15:13.356Z,23.48
2023-03-12T08:16:12.619Z,23.48
2023-03-12T08:17:11.300Z,23.48
2023-03-12T08:18:12.426Z,23.48
2023-03-12T08:19:12.260Z,23.80
2023-03-12T08:21:23.807Z,23.48
2023-03-12T08:22:12.697Z,23.48
2023-03-12T08:23:13.993Z,23.15
2023-03-12T08:24:13.818Z,23.48
2023-03-12T08:25:13.270Z,23.48
2023-03-12T08:26:13.231Z,23.48
2023-03-12T08:27:12.696Z,23.48
2023-03-12T08:28:13.387Z,23.48
2023-03-12T08:29:13.379Z,23.80
2023-03-12T08:30:16.308Z,23.48
2023-03-12T08:31:14.834Z,23.48
2023-03-12T08:32:14.796Z,23.80
2023-03-12T08:33:17.246Z,23.80
2023-03-12T08:34:15.693Z,23.80
2023-03-12T08:35:17.847Z,23.80
2023-03-12T08:36:16.371Z,23.80
2023-03-12T08:37:14.801Z,24.12
2023-03-12T08:38:16.312Z,24.12
2023-03-12T08:39:16.094Z,23.80
2023-03-12T08:40:15.384Z,23.80
2023-03-12T08:41:15.769Z,24.12
2023-03-12T08:42:17.018Z,24.12
2023-03-12T08:43:16.586Z,24.12
2023-03-12T08:44:16.901Z,24.12
2023-03-12T08:45:18.455Z,24.12
2023-03-12T08:46:17.670Z,24.12
2023-03-12T08:47:18.076Z,24.12
2023-03-12T08:48:18.564Z,24.44
2023-03-12T08:49:20.203Z,24.12
2023-03-12T08:50:19.483Z,24.12
2023-03-12T08:51:19.517Z,24.12
2023-03-12T08:52:19.959Z,24.12
2023-03-12T08:53:20.240Z,24.12
2023-03-12T08:54:19.684Z,24.12
2023-03-12T08:55:20.123Z,24.44
2023-03-12T08:56:20.902Z,24.12
2023-03-12T08:57:19.794Z,24.12
2023-03-12T08:58:20.205Z,24.12
2023-03-12T08:59:21.043Z,24.12
2023-03-12T09:00:22.294Z,24.12
2023-03-12T09:01:21.839Z,24.12
2023-03-12T09:02:22.337Z,24.44
2023-03-12T09:03:24.129Z,23.80
2023-03-12T09:04:21.757Z,23.80
2023-03-12T09:05:23.115Z,24.12
2023-03-12T09:06:38.735Z,24.12
2023-03-12T09:07:22.194Z,24.12
2023-03-12T09:08:24.098Z,24.12
2023-03-12T09:09:23.178Z,24.12
2023-03-12T09:10:23.111Z,24.12
2023-03-12T09:11:25.209Z,24.12
2023-03-12T09:12:23.631Z,24.12
2023-03-12T09:13:27.309Z,24.12
2023-03-12T09:15:25.234Z,23.80
2023-03-12T09:16:24.416Z,23.80
2023-03-12T09:17:24.560Z,23.80
2023-03-12T09:18:25.050Z,24.12
2023-03-12T09:19:25.851Z,24.12
2023-03-12T09:20:25.861Z,24.12
2023-03-12T09:21:27.524Z,23.80
2023-03-12T09:22:27.197Z,24.44
2023-03-12T09:23:24.868Z,24.12
2023-03-12T09:24:25.384Z,24.12
2023-03-12T09:25:25.653Z,24.44
2023-03-12T09:26:27.832Z,24.44
2023-03-12T09:27:26.037Z,24.12
2023-03-12T09:28:26.160Z,24.44
2023-03-12T09:29:26.448Z,24.12
2023-03-12T09:30:28.085Z,24.12
2023-03-12T09:31:29.278Z,23.80
2023-03-12T09:32:26.707Z,23.80
2023-03-12T09:33:27.852Z,23.80
2023-03-12T09:34:26.828Z,23.80
2023-03-12T09:35:27.803Z,23.15
2023-03-12T09:36:41.841Z,23.80
2023-03-12T09:37:30.644Z,23.80
2023-03-12T09:38:27.708Z,24.12
2023-03-12T09:39:27.988Z,24.12
2023-03-12T09:40:28.677Z,23.48
2023-03-12T09:41:29.186Z,23.48
2023-03-12T09:42:29.328Z,23.80
2023-03-12T09:43:28.836Z,23.80
2023-03-12T09:44:29.127Z,23.80
2023-03-12T09:45:29.918Z,23.80
2023-03-12T09:46:33.207Z,24.12
2023-03-12T09:47:29.620Z,23.80
2023-03-12T09:48:31.270Z,23.80
2023-03-12T09:49:30.364Z,24.12
2023-03-12T09:50:32.672Z,23.80
2023-03-12T09:51:30.661Z,23.80
2023-03-12T09:52:31.385Z,24.12
2023-03-12T09:53:31.838Z,24.44
2023-03-12T09:54:31.939Z,24.12
2023-03-12T09:55:32.439Z,24.44
2023-03-12T09:56:34.956Z,24.12
2023-03-12T09:57:32.321Z,24.44
2023-03-12T09:58:33.842Z,24.12
2023-03-12T09:59:33.438Z,24.44
2023-03-12T10:00:33.067Z,24.12
2023-03-12T10:01:33.171Z,24.44
2023-03-12T10:02:33.343Z,24.12
2023-03-12T10:03:35.293Z,24.12
2023-03-12T10:04:45.446Z,24.12
2023-03-12T10:05:36.314Z,24.44
2023-03-12T10:06:36.814Z,24.44
2023-03-12T10:07:34.098Z,24.44
2023-03-12T10:08:34.007Z,24.77
2023-03-12T10:09:34.280Z,24.44
2023-03-12T10:10:39.123Z,24.44
2023-03-12T10:11:35.306Z,24.44
2023-03-12T10:12:34.953Z,24.77
2023-03-12T10:13:36.302Z,24.77
2023-03-12T10:14:34.969Z,24.77
2023-03-12T10:15:36.638Z,24.44
2023-03-12T10:16:36.956Z,24.44
2023-03-12T10:17:36.277Z,24.44
2023-03-12T10:18:41.171Z,24.44
2023-03-12T10:19:36.869Z,24.44
2023-03-12T10:20:37.188Z,24.44
2023-03-12T10:21:37.938Z,24.44
2023-03-12T10:22:38.011Z,24.44
2023-03-12T10:23:36.962Z,24.12
2023-03-12T10:24:37.240Z,24.44
2023-03-12T10:25:38.942Z,24.44
2023-03-12T10:26:37.697Z,24.77
2023-03-12T10:27:39.172Z,24.12
2023-03-12T10:28:38.750Z,24.44
2023-03-12T10:29:38.070Z,24.44
2023-03-12T10:30:39.563Z,24.44
2023-03-12T10:31:39.052Z,24.77
2023-03-12T10:32:38.613Z,24.44
2023-03-12T10:33:38.581Z,24.44
2023-03-12T10:34:40.823Z,24.44
2023-03-12T10:35:42.006Z,24.44
2023-03-12T10:36:41.840Z,24.44
2023-03-12T10:37:43.545Z,24.44
2023-03-12T10:38:41.050Z,24.44
2023-03-12T10:39:41.454Z,24.44
2023-03-12T10:40:42.042Z,24.44
2023-03-12T10:41:41.671Z,24.44
2023-03-12T10:42:40.429Z,24.77
2023-03-12T10:43:40.810Z,24.77
2023-03-12T10:44:41.998Z,24.44
2023-03-12T10:45:42.679Z,24.77
2023-03-12T10:46:42.814Z,24.77
2023-03-12T10:47:43.646Z,24.44
2023-03-12T10:48:42.047Z,24.44
2023-03-12T10:49:44.850Z,24.44
2023-03-12T10:50:43.545Z,24.44
2023-03-12T10:51:42.898Z,24.44
2023-03-12T10:52:43.541Z,24.44
2023-03-12T10:53:44.475Z,24.44
2023-03-12T10:54:43.661Z,24.44
2023-03-12T10:55:46.351Z,24.12
2023-03-12T10:56:43.697Z,24.44
2023-03-12T10:57:44.446Z,24.44
2023-03-12T10:58:44.327Z,24.44
2023-03-12T10:59:45.070Z,24.44
2023-03-12T11:00:46.085Z,24.44
2023-03-12T11:01:45.022Z,24.44
2023-03-12T11:02:46.450Z,24.12
2023-03-12T11:03:45.687Z,24.44
2023-03-12T11:04:47.709Z,24.44
2023-03-12T11:05:48.627Z,24.12
2023-03-12T11:06:52.616Z,24.44
2023-03-12T11:07:48.622Z,24.44
2023-03-12T11:08:49.793Z,24.44
2023-03-12T11:11:02.335Z,24.44
2023-03-12T11:11:48.530Z,23.80
2023-03-12T11:12:49.378Z,24.44
2023-03-12T11:13:54.124Z,24.77
2023-03-12T11:14:49.216Z,24.44
2023-03-12T11:15:49.348Z,24.44
2023-03-12T11:16:49.284Z,24.44
2023-03-12T11:17:51.703Z,24.77
2023-03-12T11:18:49.850Z,24.44
2023-03-12T11:19:50.092Z,24.77
2023-03-12T11:20:50.195Z,24.44
2023-03-12T11:21:50.177Z,24.44
2023-03-12T11:22:51.667Z,24.44
2023-03-12T11:23:50.688Z,24.44
2023-03-12T11:24:54.023Z,24.12
2023-03-12T11:25:51.105Z,24.44
2023-03-12T11:26:51.022Z,24.44
2023-03-12T11:27:51.164Z,24.44
2023-03-12T11:28:51.352Z,24.44
2023-03-12T11:29:53.467Z,24.44
2023-03-12T11:30:53.128Z,24.44
2023-03-12T11:31:52.866Z,24.44
2023-03-12T11:32:51.962Z,24.44
2023-03-12T11:33:52.035Z,24.44
2023-03-12T11:34:54.458Z,24.44
2023-03-12T11:35:57.029Z,24.44
2023-03-12T11:36:55.320Z,24.77
2023-03-12T11:37:54.186Z,24.77
2023-03-12T11:38:53.167Z,24.77
2023-03-12T11:39:53.824Z,24.44
2023-03-12T11:40:54.507Z,24.77
2023-03-12T11:41:55.455Z,24.44
2023-03-12T11:42:54.351Z,24.44
2023-03-12T11:43:55.961Z,24.77
2023-03-12T11:44:57.237Z,24.77
2023-03-12T11:45:55.380Z,24.77
2023-03-12T11:46:55.965Z,24.77
2023-03-12T11:47:56.177Z,24.44
2023-03-12T11:48:56.464Z,24.77
2023-03-12T11:49:59.043Z,24.77
2023-03-12T11:50:59.561Z,24.77
2023-03-12T11:51:57.825Z,24.44
2023-03-12T11:52:57.048Z,24.44
2023-03-12T11:54:02.433Z,24.77
2023-03-12T11:55:00.560Z,24.77
2023-03-12T11:56:01.478Z,24.44
2023-03-12T11:56:58.342Z,24.77
2023-03-12T11:58:01.791Z,24.77
2023-03-12T11:58:58.796Z,24.77
2023-03-12T11:59:58.894Z,24.77
2023-03-12T12:00:58.818Z,24.77
2023-03-12T12:02:02.070Z,24.77
2023-03-12T12:02:59.218Z,24.77
2023-03-12T12:04:03.208Z,24.77
2023-03-12T12:05:00.495Z,24.77
2023-03-12T12:06:03.496Z,24.77
2023-03-12T12:06:59.917Z,24.44
2023-03-12T12:08:01.463Z,24.77
2023-03-12T12:09:04.568Z,24.77
2023-03-12T12:10:01.431Z,24.77
2023-03-12T12:11:01.053Z,24.77
2023-03-12T12:12:04.887Z,24.44
2023-03-12T12:13:02.686Z,24.44
2023-03-12T12:14:01.133Z,24.77
2023-03-12T12:15:01.193Z,24.77
2023-03-12T12:16:03.506Z,24.77
2023-03-12T12:17:02.827Z,24.77
2023-03-12T12:18:01.857Z,24.77
2023-03-12T12:19:04.110Z,24.77
2023-03-12T12:20:02.071Z,24.77
2023-03-12T12:21:03.075Z,24.44
2023-03-12T12:22:04.750Z,24.77
2023-03-12T12:23:04.659Z,24.77
2023-03-12T12:24:03.698Z,24.44
2023-03-12T12:25:04.941Z,24.44
2023-03-12T12:26:05.028Z,24.44
2023-03-12T12:27:04.661Z,24.44
2023-03-12T12:28:05.885Z,24.44
2023-03-12T12:29:05.252Z,24.44
2023-03-12T12:30:05.206Z,24.44
2023-03-12T12:31:07.177Z,24.44
2023-03-12T12:32:06.378Z,24.77
2023-03-12T12:33:06.235Z,24.77
2023-03-12T12:34:08.142Z,24.77
2023-03-12T12:35:07.632Z,24.77
2023-03-12T12:36:12.592Z,24.77
2023-03-12T12:37:07.277Z,24.77
2023-03-12T12:38:07.974Z,24.77
2023-03-12T12:39:09.034Z,24.77
2023-03-12T12:40:07.806Z,24.77
2023-03-12T12:41:08.649Z,24.44
2023-03-12T12:42:07.927Z,24.77
2023-03-12T12:43:08.123Z,24.77
2023-03-12T12:44:08.546Z,25.09
2023-03-12T12:45:08.960Z,25.09
2023-03-12T12:46:09.165Z,25.09
2023-03-12T12:47:10.364Z,25.09
2023-03-12T12:48:09.564Z,25.09
2023-03-12T12:49:12.012Z,24.44
2023-03-12T12:50:09.884Z,24.77
2023-03-12T12:51:11.126Z,24.77
2023-03-12T12:52:10.555Z,24.77
2023-03-12T12:53:10.629Z,24.44
2023-03-12T12:54:11.652Z,24.12
2023-03-12T12:55:11.207Z,24.12
2023-03-12T12:56:15.191Z,24.12
2023-03-12T12:57:12.913Z,24.77
2023-03-12T12:58:11.979Z,24.44
2023-03-12T12:59:13.363Z,24.77